TimeCST,TemperatureF,Dew PointF,Humidity,Sea Level PressureIn,VisibilityMPH,Wind Direction,Wind SpeedMPH,Gust SpeedMPH,PrecipitationIn,Events,Conditions,WindDirDegrees,DateUTC
12:15 AM,32.0,21.2,64,30.10,10.0,SE,4.6,-,N/A,,Clear,140,2013-01-08 06:15:00
12:55 AM,30.2,21.2,69,30.10,10.0,SSE,4.6,-,N/A,,Clear,150,2013-01-08 06:55:00
1:15 AM,33.8,21.2,60,30.11,10.0,SSE,4.6,-,N/A,,Clear,160,2013-01-08 07:15:00
1:35 AM,30.2,21.2,69,30.11,10.0,SSE,5.8,-,N/A,,Clear,150,2013-01-08 07:35:00
1:55 AM,30.2,21.2,69,30.11,10.0,SSE,4.6,-,N/A,,Clear,160,2013-01-08 07:55:00
2:15 AM,32.0,21.2,64,30.11,10.0,SSE,5.8,-,N/A,,Clear,160,2013-01-08 08:15:00
2:35 AM,32.0,23.0,69,30.11,10.0,SSE,3.5,-,N/A,,Clear,160,2013-01-08 08:35:00
2:55 AM,32.0,21.2,64,30.11,10.0,SSE,3.5,-,N/A,,Clear,150,2013-01-08 08:55:00
3:35 AM,32.0,21.2,64,30.11,10.0,SSE,4.6,-,N/A,,Clear,150,2013-01-08 09:35:00
3:55 AM,30.2,21.2,69,30.11,10.0,SSE,3.5,-,N/A,,Clear,160,2013-01-08 09:55:00
4:15 AM,32.0,23.0,69,30.10,10.0,Calm,Calm,-,N/A,,Clear,0,2013-01-08 10:15:00
4:35 AM,32.0,21.2,64,30.09,10.0,ESE,3.5,-,N/A,,Clear,120,2013-01-08 10:35:00
4:55 AM,30.2,21.2,69,30.09,10.0,SE,4.6,-,N/A,,Clear,130,2013-01-08 10:55:00
5:15 AM,28.4,21.2,74,30.09,10.0,SE,3.5,-,N/A,,Clear,130,2013-01-08 11:15:00
5:35 AM,28.4,19.4,69,30.09,10.0,SE,5.8,-,N/A,,Clear,140,2013-01-08 11:35:00
5:55 AM,28.4,21.2,74,30.09,10.0,ESE,4.6,-,N/A,,Clear,120,2013-01-08 11:55:00
6:35 AM,28.4,19.4,69,30.10,10.0,SE,4.6,-,N/A,,Clear,140,2013-01-08 12:35:00
6:55 AM,26.6,19.4,74,30.11,10.0,SE,5.8,-,N/A,,Clear,140,2013-01-08 12:55:00
7:15 AM,28.4,21.2,74,30.11,10.0,ESE,5.8,-,N/A,,Clear,120,2013-01-08 13:15:00
7:35 AM,28.4,21.2,74,30.11,10.0,SSE,5.8,-,N/A,,Partly Cloudy,150,2013-01-08 13:35:00
8:15 AM,30.2,24.8,80,30.12,10.0,SE,4.6,-,N/A,,Mostly Cloudy,140,2013-01-08 14:15:00
8:35 AM,33.8,26.6,75,30.13,10.0,SSE,5.8,-,N/A,,Overcast,150,2013-01-08 14:35:00
8:55 AM,37.4,26.6,65,30.13,10.0,SSE,5.8,-,N/A,,Mostly Cloudy,160,2013-01-08 14:55:00
9:15 AM,39.2,26.6,61,30.13,10.0,SSE,6.9,-,N/A,,Scattered Clouds,160,2013-01-08 15:15:00
9:55 AM,42.8,28.4,57,30.13,10.0,SSE,8.1,-,N/A,,Mostly Cloudy,160,2013-01-08 15:55:00
10:15 AM,46.4,28.4,50,30.12,10.0,South,9.2,-,N/A,,Overcast,180,2013-01-08 16:15:00
10:35 AM,46.4,30.2,53,30.12,10.0,South,6.9,-,N/A,,Mostly Cloudy,190,2013-01-08 16:35:00
10:55 AM,48.2,32.0,54,30.12,10.0,South,9.2,-,N/A,,Scattered Clouds,190,2013-01-08 16:55:00
12:15 PM,53.6,35.6,51,30.07,10.0,South,8.1,-,N/A,,Mostly Cloudy,170,2013-01-08 18:15:00
12:35 PM,53.6,35.6,51,30.05,10.0,South,9.2,-,N/A,,Scattered Clouds,170,2013-01-08 18:35:00
12:55 PM,55.4,37.4,51,30.05,10.0,South,9.2,-,N/A,,Clear,180,2013-01-08 18:55:00
1:15 PM,55.4,37.4,51,30.04,10.0,South,10.4,-,N/A,,Scattered Clouds,180,2013-01-08 19:15:00
1:55 PM,57.2,39.2,51,30.05,10.0,SSW,11.5,-,N/A,,Mostly Cloudy,210,2013-01-08 19:55:00
2:15 PM,57.2,39.2,51,30.05,10.0,SSW,12.7,-,N/A,,Overcast,200,2013-01-08 20:15:00
2:35 PM,57.2,37.4,48,30.05,10.0,SSW,10.4,17.3,N/A,,Overcast,200,2013-01-08 20:35:00
2:55 PM,57.2,37.4,48,30.05,10.0,South,10.4,-,N/A,,Overcast,190,2013-01-08 20:55:00
3:15 PM,57.2,37.4,48,30.06,10.0,SSW,12.7,-,N/A,,Overcast,200,2013-01-08 21:15:00
3:55 PM,55.4,37.4,51,30.07,10.0,South,11.5,-,N/A,,Overcast,190,2013-01-08 21:55:00
4:35 PM,53.6,37.4,54,30.07,10.0,South,9.2,-,N/A,,Overcast,180,2013-01-08 22:35:00
4:55 PM,51.8,39.2,62,30.08,10.0,SSW,8.1,-,N/A,,Overcast,200,2013-01-08 22:55:00
5:15 PM,48.2,42.8,82,30.08,5.0,South,4.6,-,0.01,,Overcast,180,2013-01-08 23:15:00
5:55 PM,46.4,42.8,87,30.09,5.0,WSW,3.5,-,0.02,,Overcast,250,2013-01-08 23:55:00
6:15 PM,46.4,42.8,87,30.09,10.0,Calm,Calm,-,N/A,,Overcast,0,2013-01-09 00:15:00
6:35 PM,46.4,42.8,87,30.10,6.0,Calm,Calm,-,0.01,,Overcast,0,2013-01-09 00:35:00
6:55 PM,46.4,42.8,87,30.11,5.0,NW,3.5,-,0.02,,Overcast,310,2013-01-09 00:55:00
7:15 PM,46.4,42.8,87,30.11,5.0,Calm,Calm,-,0.05,,Overcast,0,2013-01-09 01:15:00
7:55 PM,46.4,44.6,93,30.12,5.0,North,3.5,-,0.10,,Overcast,10,2013-01-09 01:55:00
8:15 PM,46.4,44.6,93,30.13,5.0,Calm,Calm,-,N/A,,Overcast,0,2013-01-09 02:15:00
8:35 PM,46.4,44.6,93,30.12,5.0,Calm,Calm,-,N/A,,Overcast,0,2013-01-09 02:35:00
8:56 PM,46.4,44.6,93,30.13,4.0,NNE,3.5,-,N/A,,Overcast,20,2013-01-09 02:56:00
9:15 PM,46.4,44.6,93,30.13,4.0,North,3.5,-,N/A,,Overcast,350,2013-01-09 03:15:00
9:35 PM,46.4,44.6,93,30.13,3.0,North,3.5,-,N/A,,Overcast,350,2013-01-09 03:35:00
9:55 PM,46.4,44.6,93,30.14,3.0,North,3.5,-,N/A,,Overcast,350,2013-01-09 03:55:00
10:15 PM,46.4,44.6,93,30.15,3.0,North,5.8,-,N/A,,Overcast,360,2013-01-09 04:15:00
11:15 PM,46.4,44.6,93,30.18,4.0,NE,3.5,-,N/A,,Overcast,40,2013-01-09 05:15:00
11:55 PM,46.4,44.6,93,30.21,3.0,Calm,Calm,-,N/A,,Overcast,0,2013-01-09 05:55:00